首页
METAR-TAF:

METAR-TAF

机场 :

萨尔瓦多奥斯卡·阿努尔福·罗梅罗-伊-加尔达梅斯主教国际机场

萨尔瓦多, 萨尔瓦多

纬度: 13-26N, 经度: 089-03W, 海拔: 25米

当前天气观测

该预报发布于14分钟前的15:17 UTC
风速3节,风向东转东北,在北转西北东南之间变化
温度 30°C
湿度 70%
气压 1013 hPa
能见度10公里或以上
少量云层高于2300英尺

METAR: MSLP 161517Z 06003KT 340V140 9999 FEW023 30/24 Q1013 NOSIG

时间: 09:31 (15:31 UTC)

预报

该预报发布于6小时和6分钟前的09:25 UTC
预报有效从16日的 12点(UTC)到 17日的 12点(UTC)
风速6节,风向东转东北
能见度10公里或以上
少量云层高于2300英尺
从 16日的 1800点(UTC)
风速10节,风向南转西南
能见度10公里或以上
散云层高于2300英尺
散云层高于3300英尺, 积雨云.
短暂存在
从 16日的 21点(UTC)到 16日的 23点(UTC)
能見度: 7000
雷暴, 雨
从 17日的 0000点(UTC)
风速3节,风向多变
能见度10公里或以上
少量云层高于2300英尺
少量云层高于3700英尺, 积雨云.
散云层高于7000英尺
短暂存在
从 17日的 03点(UTC)到 17日的 06点(UTC)
风速10节,风向东转东北
能見度: 4000
多云层高于2300英尺
多云层高于3300英尺, 积雨云.
雷暴, 雨

TAF: MSLP 160925Z 1612/1712 06006KT 9999 FEW023 TX33/1618Z TN24/1712Z FM161800 20010KT 9999 SCT023 SCT033CB TEMPO 1621/1623 7000 TSRA FM170000 VRB03KT 9999 FEW023 FEW037CB SCT070 TEMPO 1703/1706 06010KT 4000 TSRA BKN023 BKN033CB

超过4000个机场的气象观测和天气预报(METAR&TAF报告)。

可查询的气象台以黄色和红色小点在地图上表示。

将鼠标移到小点上方,可查看气象台名称。

然后点击查看天气观测和预报。

如需切换地图:点击带黑十字的绿色按钮放大地图;点击带横线的绿色按钮缩小地图;或者点击绿色箭头查看邻近地区的地图。


METAR-TAF: